Brookville, Ohio
Current Conditions -  °F | °C
As of 4:56 AM on Friday 24 Oct 2014 (Local Time) from KDAY Reporting Station
Overcast Overcast  
Wind Chill: 40°   Ceiling: 20000
Heat Index: 43°   Visibility: 9mi
Dew Point: 39°   Wind: 5mph
Humidity: 86%   Direction: 110°ESE
Pressure: 30.11"   Gusts: NA
Location:  39.84°N, 84.41°W
Report Text: KDAY 240856Z 11004KT 9SM OVC200 06/04 A3011 RMK AO2 SLP199 T00610039 58002
Loading
Personal Weather Stations






























Interactive Weather Map
Tropical Storm Tracking
New forecast layout! Learn more

10-Day Weather Forecast

Advertisements
Track Severe Weather on mobile